createdAt,value
2023-01-20T00:01:31.992Z,97542.25
2023-01-20T00:04:00.532Z,97546.06
2023-01-20T00:06:29.387Z,97541.47
2023-01-20T00:08:58.831Z,97528.72
2023-01-20T00:11:27.964Z,97522.47
2023-01-20T00:13:59.434Z,97524.72
2023-01-20T00:16:28.758Z,97528.72
2023-01-20T00:18:57.391Z,97533.50
2023-01-20T00:21:25.655Z,97527.25
2023-01-20T00:23:54.150Z,97540.31
2023-01-20T00:26:24.231Z,97534.44
2023-01-20T00:28:55.368Z,97546.41
2023-01-20T00:31:26.494Z,97543.69
2023-01-20T00:33:56.562Z,97531.16
2023-01-20T00:36:25.798Z,97532.50
2023-01-20T00:38:54.598Z,97534.84
2023-01-20T00:41:22.893Z,97540.25
2023-01-20T00:43:51.626Z,97545.69
2023-01-20T00:46:19.880Z,97544.84
2023-01-20T00:48:50.046Z,97550.09
2023-01-20T00:51:18.205Z,97561.25
2023-01-20T00:53:46.739Z,97560.69
2023-01-20T00:56:15.143Z,97564.81
2023-01-20T00:58:44.798Z,97562.66
2023-01-20T01:01:13.774Z,97565.13
2023-01-20T01:03:42.427Z,97556.00
2023-01-20T01:06:14.085Z,97560.84
2023-01-20T01:08:42.719Z,97554.69
2023-01-20T01:11:11.823Z,97559.09
2023-01-20T01:13:40.729Z,97570.75
2023-01-20T01:16:12.303Z,97588.22
2023-01-20T01:18:40.996Z,97596.41
2023-01-20T01:21:11.138Z,97607.69
2023-01-20T01:23:41.029Z,97600.91
2023-01-20T01:26:10.152Z,97601.75
2023-01-20T01:28:38.849Z,97618.00
2023-01-20T01:31:08.902Z,97621.94
2023-01-20T01:33:37.675Z,97630.88
2023-01-20T01:36:08.601Z,97629.19
2023-01-20T01:38:36.930Z,97627.97
2023-01-20T01:41:06.893Z,97634.63
2023-01-20T01:43:37.184Z,97642.94
2023-01-20T01:46:06.270Z,97646.50
2023-01-20T01:48:37.683Z,97627.31
2023-01-20T01:51:09.394Z,97606.47
2023-01-20T01:53:41.347Z,97597.44
2023-01-20T01:56:11.636Z,97598.94
2023-01-20T01:58:42.970Z,97593.50
2023-01-20T02:01:11.708Z,97592.66
2023-01-20T02:03:44.954Z,97595.06
2023-01-20T02:06:13.742Z,97612.25
2023-01-20T02:08:42.398Z,97612.81
2023-01-20T02:11:12.000Z,97627.72
2023-01-20T02:13:40.677Z,97631.66
2023-01-20T02:16:16.403Z,97629.50
2023-01-20T02:18:58.866Z,97606.28
2023-01-20T02:22:03.487Z,97597.25
2023-01-20T02:25:13.934Z,97593.41
2023-01-20T02:28:17.054Z,97605.28
2023-01-20T02:31:12.231Z,97609.75
2023-01-20T02:33:43.074Z,97610.75
2023-01-20T02:36:13.699Z,97595.00
2023-01-20T02:38:45.673Z,97586.28
2023-01-20T02:41:19.177Z,97589.19
2023-01-20T02:43:50.537Z,97584.19
2023-01-20T02:46:24.718Z,97585.72
2023-01-20T02:48:57.273Z,97599.66
2023-01-20T02:51:28.178Z,97610.53
2023-01-20T02:53:58.953Z,97621.03
2023-01-20T02:56:30.333Z,97613.38
2023-01-20T02:59:01.166Z,97611.94
2023-01-20T03:01:33.640Z,97608.16
2023-01-20T03:04:04.556Z,97610.28
2023-01-20T03:06:36.416Z,97614.16
2023-01-20T03:09:08.260Z,97616.28
2023-01-20T03:11:38.940Z,97617.63
2023-01-20T03:14:08.844Z,97620.88
2023-01-20T03:16:37.575Z,97621.75
2023-01-20T03:19:07.310Z,97620.22
2023-01-20T03:21:36.412Z,97620.16
2023-01-20T03:24:06.822Z,97622.03
2023-01-20T03:26:35.484Z,97627.31
2023-01-20T03:29:06.770Z,97643.53
2023-01-20T03:31:37.812Z,97651.09
2023-01-20T03:34:11.192Z,97653.78
2023-01-20T03:36:40.505Z,97665.72
2023-01-20T03:39:08.936Z,97674.34
2023-01-20T03:41:44.883Z,97676.50
2023-01-20T03:44:18.192Z,97671.66
2023-01-20T03:46:49.541Z,97672.81
2023-01-20T03:49:25.583Z,97670.69
2023-01-20T03:52:00.586Z,97670.63
2023-01-20T03:54:34.998Z,97665.38
2023-01-20T03:57:07.703Z,97662.41
2023-01-20T03:59:37.160Z,97674.22
2023-01-20T04:02:08.880Z,97671.63
2023-01-20T04:04:40.685Z,97679.47
2023-01-20T04:07:13.323Z,97681.31
2023-01-20T04:09:44.715Z,97677.88
2023-01-20T04:12:28.411Z,97684.38
2023-01-20T04:14:56.719Z,97688.03
2023-01-20T04:17:28.776Z,97680.13
2023-01-20T04:19:58.851Z,97689.59
2023-01-20T04:22:30.939Z,97692.16
2023-01-20T04:25:02.859Z,97693.19
2023-01-20T04:27:31.389Z,97697.84
2023-01-20T04:29:59.616Z,97689.53
2023-01-20T04:32:28.266Z,97706.53
2023-01-20T04:34:56.536Z,97704.88
2023-01-20T04:37:26.633Z,97705.53
2023-01-20T04:39:54.993Z,97711.69
2023-01-20T04:42:23.441Z,97716.19
2023-01-20T04:44:51.821Z,97714.56
2023-01-20T04:47:20.348Z,97710.75
2023-01-20T04:49:48.615Z,97705.75
2023-01-20T04:52:17.677Z,97714.88
2023-01-20T04:54:47.492Z,97709.47
2023-01-20T04:57:16.155Z,97716.25
2023-01-20T04:59:45.304Z,97721.06
2023-01-20T05:02:14.048Z,97722.06
2023-01-20T05:04:42.321Z,97721.66
2023-01-20T05:07:11.261Z,97716.94
2023-01-20T05:09:39.483Z,97720.69
2023-01-20T05:12:09.863Z,97722.34
2023-01-20T05:14:38.258Z,97733.03
2023-01-20T05:17:06.823Z,97734.94
2023-01-20T05:19:35.053Z,97738.81
2023-01-20T05:22:03.660Z,97739.00
2023-01-20T05:24:32.010Z,97739.88
2023-01-20T05:27:01.568Z,97739.91
2023-01-20T05:29:31.381Z,97740.81
2023-01-20T05:31:59.923Z,97746.66
2023-01-20T05:34:28.228Z,97741.75
2023-01-20T05:36:56.772Z,97748.78
2023-01-20T05:39:25.119Z,97744.34
2023-01-20T05:41:53.944Z,97752.66
2023-01-20T05:44:22.842Z,97752.66
2023-01-20T05:46:52.826Z,97753.69
2023-01-20T05:49:21.169Z,97759.94
2023-01-20T05:51:49.718Z,97757.81
2023-01-20T05:54:18.449Z,97758.19
2023-01-20T05:56:49.106Z,97760.84
2023-01-20T05:59:17.332Z,97768.97
2023-01-20T06:01:46.437Z,97769.56
2023-01-20T06:04:16.023Z,97769.81
2023-01-20T06:06:44.538Z,97767.34
2023-01-20T06:09:12.742Z,97765.94
2023-01-20T06:11:41.219Z,97773.66
2023-01-20T06:14:09.492Z,97780.34
2023-01-20T06:16:38.037Z,97783.16
2023-01-20T06:19:06.336Z,97793.22
2023-01-20T06:21:36.322Z,97789.72
2023-01-20T06:24:04.806Z,97786.31
2023-01-20T06:26:33.614Z,97793.00
2023-01-20T06:29:01.930Z,97792.28
2023-01-20T06:31:30.590Z,97796.63
2023-01-20T06:33:59.042Z,97799.53
2023-01-20T06:36:27.868Z,97803.66
2023-01-20T06:38:57.487Z,97800.72
2023-01-20T06:41:26.214Z,97803.78
2023-01-20T06:43:54.526Z,97806.56
2023-01-20T06:46:23.625Z,97815.13
2023-01-20T06:48:52.058Z,97819.22
2023-01-20T06:51:21.714Z,97822.63
2023-01-20T06:53:50.036Z,97824.16
2023-01-20T06:56:19.999Z,97817.34
2023-01-20T06:58:48.637Z,97823.56
2023-01-20T07:01:21.831Z,97822.78
2023-01-20T07:03:50.579Z,97826.25
2023-01-20T07:06:27.958Z,97840.91
2023-01-20T07:08:58.688Z,97845.59
2023-01-20T07:11:31.486Z,97845.63
2023-01-20T07:13:59.901Z,97855.75
2023-01-20T07:16:28.658Z,97858.63
2023-01-20T07:18:57.114Z,97860.84
2023-01-20T07:21:26.624Z,97862.00
2023-01-20T07:23:55.131Z,97870.66
2023-01-20T07:26:26.594Z,97865.19
2023-01-20T07:28:56.216Z,97851.78
2023-01-20T07:31:26.765Z,97852.00
2023-01-20T07:33:56.232Z,97848.91
2023-01-20T07:36:25.288Z,97860.94
2023-01-20T07:38:57.613Z,97853.09
2023-01-20T07:41:26.179Z,97858.41
2023-01-20T07:43:56.129Z,97861.00
2023-01-20T07:46:24.968Z,97853.47
2023-01-20T07:48:53.339Z,97854.53
2023-01-20T07:51:21.995Z,97861.41
2023-01-20T07:53:52.233Z,97856.31
2023-01-20T07:56:22.501Z,97858.00
2023-01-20T07:58:51.585Z,97859.94
2023-01-20T08:01:25.810Z,97862.78
2023-01-20T08:03:54.573Z,97872.50
2023-01-20T08:06:27.422Z,97869.81
2023-01-20T08:08:58.728Z,97871.63
2023-01-20T08:11:27.721Z,97877.44
2023-01-20T08:13:56.298Z,97882.75
2023-01-20T08:16:26.335Z,97879.19
2023-01-20T08:18:55.329Z,97880.25
2023-01-20T08:21:26.123Z,97876.84
2023-01-20T08:23:56.631Z,97879.19
2023-01-20T08:26:25.951Z,97878.69
2023-01-20T08:28:55.833Z,97880.34
2023-01-20T08:31:26.119Z,97877.25
2023-01-20T08:33:55.724Z,97890.63
2023-01-20T08:36:25.927Z,97895.16
2023-01-20T08:38:55.338Z,97899.38
2023-01-20T08:41:25.864Z,97903.78
2023-01-20T08:43:54.123Z,97905.66
2023-01-20T08:46:23.423Z,97903.94
2023-01-20T08:48:53.204Z,97906.38
2023-01-20T08:51:23.781Z,97906.44
2023-01-20T08:53:52.727Z,97910.28
2023-01-20T08:56:21.571Z,97903.94
2023-01-20T08:58:50.490Z,97910.50
2023-01-20T09:01:21.088Z,97911.41
2023-01-20T09:04:04.447Z,97913.97
2023-01-20T09:06:40.568Z,97911.41
2023-01-20T09:09:08.830Z,97915.31
2023-01-20T09:11:38.155Z,97914.69
2023-01-20T09:14:06.545Z,97924.22
2023-01-20T09:16:35.565Z,97925.03
2023-01-20T09:19:04.443Z,97921.84
2023-01-20T09:21:33.119Z,97921.53
2023-01-20T09:24:02.923Z,97916.88
2023-01-20T09:26:38.876Z,97915.09
2023-01-20T09:29:10.465Z,97923.97
2023-01-20T09:31:40.105Z,97922.38
2023-01-20T09:34:09.094Z,97924.13
2023-01-20T09:36:37.766Z,97916.03
2023-01-20T09:39:24.866Z,97917.25
2023-01-20T09:42:11.565Z,97915.53
2023-01-20T09:44:45.997Z,97919.31
2023-01-20T09:47:20.841Z,97917.69
2023-01-20T09:50:21.976Z,97919.41
2023-01-20T09:53:02.920Z,97908.34
2023-01-20T09:55:41.080Z,97904.19
2023-01-20T09:58:22.910Z,97908.09
2023-01-20T10:00:55.547Z,97904.53
2023-01-20T10:03:30.852Z,97905.56
2023-01-20T10:06:00.048Z,97900.91
2023-01-20T10:08:33.016Z,97899.66
2023-01-20T10:11:06.968Z,97890.25
2023-01-20T10:13:37.995Z,97882.06
2023-01-20T10:16:09.153Z,97892.97
2023-01-20T10:18:43.706Z,97884.81
2023-01-20T10:21:16.056Z,97899.16
2023-01-20T10:23:48.493Z,97893.16
2023-01-20T10:26:23.686Z,97897.81
2023-01-20T10:28:56.583Z,97895.88
2023-01-20T10:31:28.784Z,97900.50
2023-01-20T10:34:00.559Z,97904.84
2023-01-20T10:36:29.622Z,97904.13
2023-01-20T10:39:00.906Z,97906.34
2023-01-20T10:41:37.783Z,97904.75
2023-01-20T10:44:12.852Z,97910.97
2023-01-20T10:46:55.265Z,97909.34
2023-01-20T10:50:05.261Z,97903.75
2023-01-20T10:52:45.484Z,97908.53
2023-01-20T10:55:23.014Z,97906.09
2023-01-20T10:57:56.565Z,97910.41
2023-01-20T11:00:27.043Z,97920.75
2023-01-20T11:02:58.157Z,97924.47
2023-01-20T11:05:29.855Z,97921.69
2023-01-20T11:07:59.639Z,97919.47
2023-01-20T11:10:30.520Z,97912.19
2023-01-20T11:13:02.660Z,97913.56
2023-01-20T11:15:34.145Z,97922.81
2023-01-20T11:18:22.617Z,97909.84
2023-01-20T11:20:55.090Z,97900.50
2023-01-20T11:23:27.094Z,97898.34
2023-01-20T11:25:57.265Z,97899.44
2023-01-20T11:28:27.533Z,97890.75
2023-01-20T11:30:57.087Z,97894.00
2023-01-20T11:33:27.041Z,97873.59
2023-01-20T11:36:03.292Z,97878.28
2023-01-20T11:38:33.053Z,97870.03
2023-01-20T11:41:01.846Z,97877.19
2023-01-20T11:43:37.944Z,97867.34
2023-01-20T11:46:16.414Z,97867.63
2023-01-20T11:48:44.804Z,97854.34
2023-01-20T11:51:21.192Z,97849.94
2023-01-20T11:53:49.820Z,97858.53
2023-01-20T11:56:21.597Z,97854.28
2023-01-20T11:58:55.063Z,97848.31
2023-01-20T12:01:26.433Z,97840.13
2023-01-20T12:04:29.138Z,97838.56
2023-01-20T12:07:01.992Z,97833.34
2023-01-20T12:09:33.248Z,97843.41
2023-01-20T12:12:06.393Z,97827.41
2023-01-20T12:14:39.620Z,97831.50
2023-01-20T12:17:17.183Z,97834.44
2023-01-20T12:19:59.527Z,97831.50
2023-01-20T12:22:34.332Z,97851.56
2023-01-20T12:25:08.854Z,97860.16
2023-01-20T12:27:44.535Z,97863.72
2023-01-20T12:30:30.618Z,97856.91
2023-01-20T12:33:00.961Z,97852.47
2023-01-20T12:35:31.151Z,97847.84
2023-01-20T12:38:04.285Z,97849.16
2023-01-20T12:40:39.056Z,97859.78
2023-01-20T12:43:28.649Z,97855.81
2023-01-20T12:46:16.053Z,97858.19
2023-01-20T12:48:55.759Z,97861.22
2023-01-20T12:51:37.344Z,97858.53
2023-01-20T12:54:35.846Z,97869.97
2023-01-20T12:57:22.138Z,97868.84
2023-01-20T13:00:01.005Z,97870.47
2023-01-20T13:02:46.067Z,97869.13
2023-01-20T13:05:31.253Z,97879.22
2023-01-20T13:08:08.307Z,97880.78
2023-01-20T13:11:04.470Z,97884.63
2023-01-20T13:13:56.061Z,97891.13
2023-01-20T13:16:32.776Z,97884.34
2023-01-20T13:19:08.959Z,97888.97
2023-01-20T13:21:37.596Z,97899.13
2023-01-20T13:24:07.548Z,97911.44
2023-01-20T13:26:37.639Z,97923.94
2023-01-20T13:29:06.196Z,97919.34
2023-01-20T13:31:45.169Z,97918.22
2023-01-20T13:34:33.496Z,97914.06
2023-01-20T13:37:30.975Z,97911.41
2023-01-20T13:40:00.700Z,97907.44
2023-01-20T13:42:50.860Z,97915.72
2023-01-20T13:45:27.836Z,97922.97
2023-01-20T13:48:00.350Z,97924.94
2023-01-20T13:50:33.569Z,97929.31
2023-01-20T13:53:15.052Z,97933.03
2023-01-20T13:55:54.909Z,97932.91
2023-01-20T13:58:25.236Z,97938.91
2023-01-20T14:00:55.105Z,97941.06
2023-01-20T14:03:28.056Z,97939.47
2023-01-20T14:06:00.419Z,97945.00
2023-01-20T14:08:30.976Z,97952.41
2023-01-20T14:11:13.257Z,97949.13
2023-01-20T14:13:42.470Z,97947.63
2023-01-20T14:16:20.994Z,97947.59
2023-01-20T14:18:50.182Z,97939.25
2023-01-20T14:21:23.664Z,97941.66
2023-01-20T14:23:53.220Z,97948.09
2023-01-20T14:26:24.133Z,97950.09
2023-01-20T14:28:53.948Z,97948.38
2023-01-20T14:31:25.395Z,97950.56
2023-01-20T14:33:58.040Z,97955.47
2023-01-20T14:36:32.799Z,97951.63
2023-01-20T14:39:09.759Z,97943.75
2023-01-20T14:41:47.986Z,97949.88
2023-01-20T14:44:22.088Z,97951.75
2023-01-20T14:46:51.752Z,97957.28
2023-01-20T14:49:21.880Z,97948.09
2023-01-20T14:51:52.433Z,97952.47
2023-01-20T14:54:34.637Z,97955.81
2023-01-20T14:57:12.769Z,97956.72
2023-01-20T14:59:41.531Z,97955.22
2023-01-20T15:02:18.345Z,97959.53
2023-01-20T15:04:47.223Z,97957.88
2023-01-20T15:07:21.070Z,97963.47
2023-01-20T15:09:54.721Z,97974.41
2023-01-20T15:12:42.764Z,97970.28
2023-01-20T15:15:19.293Z,97977.44
2023-01-20T15:18:22.081Z,97973.75
2023-01-20T15:21:11.739Z,97978.53
2023-01-20T15:23:51.392Z,97975.22
2023-01-20T15:26:27.135Z,97984.13
2023-01-20T15:28:55.559Z,97974.47
2023-01-20T15:31:24.834Z,97976.16
2023-01-20T15:33:53.231Z,97969.59
2023-01-20T15:36:24.880Z,97963.81
2023-01-20T15:38:54.568Z,97961.03
2023-01-20T15:41:24.450Z,97970.22
2023-01-20T15:43:52.817Z,97970.81
2023-01-20T15:46:21.662Z,97973.06
2023-01-20T15:48:50.075Z,97975.94
2023-01-20T15:51:20.349Z,97975.97
2023-01-20T15:53:49.408Z,97976.09
2023-01-20T15:56:22.474Z,97982.00
2023-01-20T15:58:51.544Z,97974.19
2023-01-20T16:01:24.157Z,97975.56
2023-01-20T16:03:53.060Z,97972.56
2023-01-20T16:06:22.254Z,97984.53
2023-01-20T16:08:51.740Z,97984.28
2023-01-20T16:11:22.292Z,97983.34
2023-01-20T16:13:50.840Z,97986.00
2023-01-20T16:16:21.929Z,97982.53
2023-01-20T16:18:51.141Z,97997.84
2023-01-20T16:21:21.224Z,97985.09
2023-01-20T16:23:49.742Z,97994.31
2023-01-20T16:26:23.543Z,97989.09
2023-01-20T16:28:52.428Z,97985.19
2023-01-20T16:31:21.619Z,97986.13
2023-01-20T16:33:50.302Z,97992.50
2023-01-20T16:36:20.476Z,97993.16
2023-01-20T16:38:51.862Z,97988.78
2023-01-20T16:41:23.944Z,98000.75
2023-01-20T16:43:53.611Z,98002.63
2023-01-20T16:46:23.977Z,97999.94
2023-01-20T16:48:53.478Z,98001.31
2023-01-20T16:51:26.316Z,97999.00
2023-01-20T16:53:54.929Z,98001.75
2023-01-20T16:56:26.465Z,97993.88
2023-01-20T16:58:57.839Z,97998.50
2023-01-20T17:01:27.275Z,97998.66
2023-01-20T17:03:57.319Z,97997.53
2023-01-20T17:06:28.158Z,97998.59
2023-01-20T17:08:58.095Z,98000.78
2023-01-20T17:11:30.165Z,97999.91
2023-01-20T17:13:59.308Z,98005.09
2023-01-20T17:16:28.125Z,98007.69
2023-01-20T17:19:00.486Z,98013.47
2023-01-20T17:21:30.685Z,98016.44
2023-01-20T17:24:01.186Z,98008.72
2023-01-20T17:26:31.425Z,98015.09
2023-01-20T17:29:02.404Z,98005.50
2023-01-20T17:31:32.078Z,98003.09
2023-01-20T17:34:00.622Z,98009.06
2023-01-20T17:36:31.764Z,98007.63
2023-01-20T17:39:00.149Z,98006.06
2023-01-20T17:41:30.464Z,98005.28
2023-01-20T17:43:58.749Z,98012.41
2023-01-20T17:46:28.989Z,98010.47
2023-01-20T17:48:57.886Z,98002.75
2023-01-20T17:51:28.557Z,98000.75
2023-01-20T17:53:58.634Z,97999.09
2023-01-20T17:56:27.847Z,97988.53
2023-01-20T17:58:57.880Z,97994.97
2023-01-20T18:01:28.514Z,97993.06
2023-01-20T18:03:59.039Z,97993.88
2023-01-20T18:06:29.029Z,97991.59
2023-01-20T18:08:59.345Z,97988.97
2023-01-20T18:11:31.713Z,97984.47
2023-01-20T18:14:02.771Z,97982.22
2023-01-20T18:16:32.919Z,97990.97
2023-01-20T18:19:02.165Z,97988.84
2023-01-20T18:21:32.221Z,97984.38
2023-01-20T18:24:01.812Z,97973.84
2023-01-20T18:26:32.637Z,97978.22
2023-01-20T18:29:04.208Z,97981.91
2023-01-20T18:31:33.553Z,97978.44
2023-01-20T18:34:04.038Z,97979.09
2023-01-20T18:36:33.843Z,97972.13
2023-01-20T18:39:04.817Z,97975.63
2023-01-20T18:41:36.457Z,97968.84
2023-01-20T18:44:08.004Z,97964.63
2023-01-20T18:46:36.537Z,97961.06
2023-01-20T18:49:07.960Z,97962.81
2023-01-20T18:51:37.844Z,97970.19
2023-01-20T18:54:09.765Z,97959.88
2023-01-20T18:56:38.413Z,97960.59
2023-01-20T18:59:08.947Z,97954.59
2023-01-20T19:01:40.913Z,97957.81
2023-01-20T19:04:11.006Z,97952.53
2023-01-20T19:06:40.897Z,97955.69
2023-01-20T19:09:10.025Z,97949.06
2023-01-20T19:11:40.670Z,97945.97
2023-01-20T19:14:13.457Z,97951.09
2023-01-20T19:16:45.277Z,97959.09
2023-01-20T19:19:15.650Z,97960.84
2023-01-20T19:21:44.125Z,97960.72
2023-01-20T19:24:19.860Z,97957.31
2023-01-20T19:26:48.645Z,97950.88
2023-01-20T19:29:19.884Z,97960.81
2023-01-20T19:31:49.258Z,97950.19
2023-01-20T19:34:18.155Z,97952.09
2023-01-20T19:36:46.780Z,97956.75
2023-01-20T19:39:16.239Z,97958.34
2023-01-20T19:41:44.486Z,97961.47
2023-01-20T19:44:13.935Z,97957.31
2023-01-20T19:46:43.701Z,97959.88
2023-01-20T19:49:13.199Z,97957.06
2023-01-20T19:51:41.999Z,97960.19
2023-01-20T19:54:12.948Z,97959.38
2023-01-20T19:56:41.648Z,97956.66
2023-01-20T19:59:13.024Z,97959.00
2023-01-20T20:01:41.592Z,97949.00
2023-01-20T20:04:14.094Z,97956.03
2023-01-20T20:06:47.968Z,97957.88
2023-01-20T20:09:19.031Z,97953.31
2023-01-20T20:11:48.014Z,97946.59
2023-01-20T20:14:18.412Z,97948.91
2023-01-20T20:16:47.067Z,97958.84
2023-01-20T20:19:18.877Z,97961.16
2023-01-20T20:21:47.332Z,97969.38
2023-01-20T20:24:17.443Z,97958.75
2023-01-20T20:26:46.966Z,97958.97
2023-01-20T20:29:17.418Z,97953.53
2023-01-20T20:31:45.923Z,97954.56
2023-01-20T20:34:17.957Z,97950.25
2023-01-20T20:36:46.310Z,97943.25
2023-01-20T20:39:17.294Z,97934.00
2023-01-20T20:41:46.512Z,97929.59
2023-01-20T20:44:15.270Z,97922.09
2023-01-20T20:46:43.790Z,97930.84
2023-01-20T20:49:14.994Z,97925.22
2023-01-20T20:51:44.965Z,97925.09
2023-01-20T20:54:16.895Z,97913.59
2023-01-20T20:56:45.640Z,97919.13
2023-01-20T20:59:19.569Z,97920.91
2023-01-20T21:01:48.275Z,97925.50
2023-01-20T21:04:16.893Z,97930.03
2023-01-20T21:06:46.763Z,97919.22
2023-01-20T21:09:15.495Z,97922.03
2023-01-20T21:11:43.776Z,97918.66
2023-01-20T21:14:12.707Z,97917.63
2023-01-20T21:16:41.693Z,97916.31
2023-01-20T21:19:10.483Z,97926.06
2023-01-20T21:21:39.244Z,97924.75
2023-01-20T21:24:10.548Z,97922.41
2023-01-20T21:26:38.969Z,97922.72
2023-01-20T21:29:07.562Z,97921.84
2023-01-20T21:31:36.053Z,97916.81
2023-01-20T21:34:04.828Z,97914.03
2023-01-20T21:36:34.594Z,97910.69
2023-01-20T21:39:03.281Z,97906.56
2023-01-20T21:41:33.047Z,97906.59
2023-01-20T21:44:19.056Z,97892.44
2023-01-20T21:46:47.435Z,97889.47
2023-01-20T21:49:33.475Z,97899.00
2023-01-20T21:52:18.933Z,97899.25
2023-01-20T21:54:47.925Z,97903.91
2023-01-20T21:57:17.734Z,97909.97
2023-01-20T21:59:46.957Z,97908.50
2023-01-20T22:02:15.603Z,97910.59
2023-01-20T22:04:46.207Z,97908.00
2023-01-20T22:07:14.643Z,97908.50
2023-01-20T22:09:43.276Z,97906.41
2023-01-20T22:12:12.069Z,97903.88
2023-01-20T22:14:42.438Z,97900.38
2023-01-20T22:17:12.399Z,97899.75
2023-01-20T22:19:44.004Z,97907.09
2023-01-20T22:22:14.876Z,97904.06
2023-01-20T22:24:43.860Z,97901.03
2023-01-20T22:27:12.185Z,97903.19
2023-01-20T22:29:42.435Z,97900.75
2023-01-20T22:32:10.688Z,97908.28
2023-01-20T22:34:39.591Z,97899.41
2023-01-20T22:37:08.170Z,97896.25
2023-01-20T22:39:37.012Z,97897.28
2023-01-20T22:42:05.563Z,97890.91
2023-01-20T22:44:34.148Z,97891.34
2023-01-20T22:47:06.011Z,97898.75
2023-01-20T22:49:35.160Z,97898.94
2023-01-20T22:52:03.648Z,97890.34
2023-01-20T22:54:32.351Z,97893.97
2023-01-20T22:57:00.718Z,97884.88
2023-01-20T22:59:29.497Z,97883.47
2023-01-20T23:01:57.822Z,97880.19
2023-01-20T23:04:28.174Z,97875.84
2023-01-20T23:06:56.392Z,97877.09
2023-01-20T23:09:25.056Z,97876.03
2023-01-20T23:11:53.457Z,97874.53
2023-01-20T23:14:42.175Z,97886.94
2023-01-20T23:17:10.435Z,97879.38
2023-01-20T23:19:40.369Z,97879.72
2023-01-20T23:22:09.387Z,97882.97
2023-01-20T23:24:38.185Z,97881.34
2023-01-20T23:27:06.540Z,97875.31
2023-01-20T23:29:35.082Z,97882.97
2023-01-20T23:32:03.361Z,97885.91
2023-01-20T23:34:32.105Z,97883.69
2023-01-20T23:37:01.796Z,97868.72
2023-01-20T23:39:30.271Z,97877.06
2023-01-20T23:41:58.677Z,97880.03
2023-01-20T23:44:27.249Z,97870.00
2023-01-20T23:46:56.365Z,97877.75
2023-01-20T23:49:25.187Z,97865.84
2023-01-20T23:51:53.689Z,97877.81
2023-01-20T23:54:24.534Z,97872.06
2023-01-20T23:56:52.961Z,97880.16
2023-01-20T23:59:21.820Z,97875.88
